sensor_id;sensor_type;location;lat;lon;timestamp;P1;durP1;ratioP1;P2;durP2;ratioP2
64915;SDS011;51427;-27.442;153.014;2023-05-10T00:00:27;5.03;;;2.13;;
64915;SDS011;51427;-27.442;153.014;2023-05-10T00:02:54;3.42;;;1.23;;
64915;SDS011;51427;-27.442;153.014;2023-05-10T00:05:21;3.58;;;1.40;;
64915;SDS011;51427;-27.442;153.014;2023-05-10T00:07:48;2.95;;;1.70;;
64915;SDS011;51427;-27.442;153.014;2023-05-10T00:10:16;5.47;;;1.60;;
64915;SDS011;51427;-27.442;153.014;2023-05-10T00:12:43;4.45;;;1.67;;
64915;SDS011;51427;-27.442;153.014;2023-05-10T00:15:10;3.70;;;1.80;;
64915;SDS011;51427;-27.442;153.014;2023-05-10T00:17:37;2.95;;;1.83;;
64915;SDS011;51427;-27.442;153.014;2023-05-10T00:20:05;4.32;;;1.60;;
64915;SDS011;51427;-27.442;153.014;2023-05-10T00:22:32;5.18;;;1.80;;
64915;SDS011;51427;-27.442;153.014;2023-05-10T00:25:00;2.95;;;1.70;;
64915;SDS011;51427;-27.442;153.014;2023-05-10T00:27:28;3.83;;;1.77;;
64915;SDS011;51427;-27.442;153.014;2023-05-10T00:29:56;4.13;;;1.60;;
64915;SDS011;51427;-27.442;153.014;2023-05-10T00:32:23;3.03;;;1.65;;
64915;SDS011;51427;-27.442;153.014;2023-05-10T00:34:51;3.92;;;1.55;;
64915;SDS011;51427;-27.442;153.014;2023-05-10T00:37:18;4.72;;;1.75;;
64915;SDS011;51427;-27.442;153.014;2023-05-10T00:39:46;4.63;;;1.90;;
64915;SDS011;51427;-27.442;153.014;2023-05-10T00:42:14;4.70;;;1.92;;
64915;SDS011;51427;-27.442;153.014;2023-05-10T00:44:41;4.35;;;2.17;;
64915;SDS011;51427;-27.442;153.014;2023-05-10T00:47:09;3.58;;;1.90;;
64915;SDS011;51427;-27.442;153.014;2023-05-10T00:49:37;4.72;;;1.70;;
64915;SDS011;51427;-27.442;153.014;2023-05-10T00:52:05;4.38;;;1.88;;
64915;SDS011;51427;-27.442;153.014;2023-05-10T00:54:32;7.03;;;2.20;;
64915;SDS011;51427;-27.442;153.014;2023-05-10T00:57:00;4.47;;;1.85;;
64915;SDS011;51427;-27.442;153.014;2023-05-10T00:59:29;3.60;;;1.48;;
64915;SDS011;51427;-27.442;153.014;2023-05-10T01:01:57;2.90;;;1.50;;
64915;SDS011;51427;-27.442;153.014;2023-05-10T01:04:25;4.10;;;1.60;;
64915;SDS011;51427;-27.442;153.014;2023-05-10T01:06:53;2.42;;;1.60;;
64915;SDS011;51427;-27.442;153.014;2023-05-10T01:09:21;3.92;;;1.83;;
64915;SDS011;51427;-27.442;153.014;2023-05-10T01:11:49;4.22;;;2.22;;
64915;SDS011;51427;-27.442;153.014;2023-05-10T01:14:17;5.57;;;1.58;;
64915;SDS011;51427;-27.442;153.014;2023-05-10T01:16:46;3.20;;;1.45;;
64915;SDS011;51427;-27.442;153.014;2023-05-10T01:19:19;3.83;;;1.70;;
64915;SDS011;51427;-27.442;153.014;2023-05-10T01:22:01;6.22;;;1.38;;
64915;SDS011;51427;-27.442;153.014;2023-05-10T01:24:56;3.60;;;1.60;;
64915;SDS011;51427;-27.442;153.014;2023-05-10T01:27:47;3.13;;;1.45;;
64915;SDS011;51427;-27.442;153.014;2023-05-10T01:33:32;4.88;;;1.08;;
64915;SDS011;51427;-27.442;153.014;2023-05-10T01:39:08;3.42;;;1.50;;
64915;SDS011;51427;-27.442;153.014;2023-05-10T01:41:44;2.88;;;1.30;;
64915;SDS011;51427;-27.442;153.014;2023-05-10T01:44:35;6.85;;;1.42;;
64915;SDS011;51427;-27.442;153.014;2023-05-10T01:49:52;4.88;;;1.25;;
64915;SDS011;51427;-27.442;153.014;2023-05-10T01:52:32;3.17;;;1.20;;
64915;SDS011;51427;-27.442;153.014;2023-05-10T01:55:08;9.27;;;1.50;;
64915;SDS011;51427;-27.442;153.014;2023-05-10T01:57:39;3.65;;;1.38;;
64915;SDS011;51427;-27.442;153.014;2023-05-10T02:00:09;5.55;;;1.48;;
64915;SDS011;51427;-27.442;153.014;2023-05-10T02:02:39;3.00;;;1.27;;
64915;SDS011;51427;-27.442;153.014;2023-05-10T02:05:11;2.75;;;1.10;;
64915;SDS011;51427;-27.442;153.014;2023-05-10T02:07:41;3.20;;;1.10;;
64915;SDS011;51427;-27.442;153.014;2023-05-10T02:10:10;5.65;;;1.27;;
64915;SDS011;51427;-27.442;153.014;2023-05-10T02:12:43;2.28;;;1.20;;
64915;SDS011;51427;-27.442;153.014;2023-05-10T02:15:12;2.45;;;1.15;;
64915;SDS011;51427;-27.442;153.014;2023-05-10T02:17:46;4.53;;;0.93;;
64915;SDS011;51427;-27.442;153.014;2023-05-10T02:20:15;4.57;;;1.38;;
64915;SDS011;51427;-27.442;153.014;2023-05-10T02:22:45;6.57;;;1.30;;
64915;SDS011;51427;-27.442;153.014;2023-05-10T02:25:15;3.58;;;1.30;;
64915;SDS011;51427;-27.442;153.014;2023-05-10T02:27:46;4.47;;;1.38;;
64915;SDS011;51427;-27.442;153.014;2023-05-10T02:30:14;6.03;;;1.63;;
64915;SDS011;51427;-27.442;153.014;2023-05-10T02:32:44;7.22;;;1.73;;
64915;SDS011;51427;-27.442;153.014;2023-05-10T02:35:12;4.20;;;1.30;;
64915;SDS011;51427;-27.442;153.014;2023-05-10T02:37:41;8.57;;;1.55;;
64915;SDS011;51427;-27.442;153.014;2023-05-10T02:40:10;4.13;;;1.35;;
64915;SDS011;51427;-27.442;153.014;2023-05-10T02:42:38;3.08;;;1.27;;
64915;SDS011;51427;-27.442;153.014;2023-05-10T02:45:13;4.00;;;1.48;;
64915;SDS011;51427;-27.442;153.014;2023-05-10T02:47:57;5.78;;;1.38;;
64915;SDS011;51427;-27.442;153.014;2023-05-10T02:50:27;4.20;;;1.35;;
64915;SDS011;51427;-27.442;153.014;2023-05-10T02:52:59;3.67;;;1.10;;
64915;SDS011;51427;-27.442;153.014;2023-05-10T02:55:31;5.05;;;1.80;;
64915;SDS011;51427;-27.442;153.014;2023-05-10T02:58:02;5.60;;;1.98;;
64915;SDS011;51427;-27.442;153.014;2023-05-10T03:00:30;5.97;;;2.17;;
64915;SDS011;51427;-27.442;153.014;2023-05-10T03:02:58;4.30;;;1.63;;
64915;SDS011;51427;-27.442;153.014;2023-05-10T03:05:27;5.28;;;1.73;;
64915;SDS011;51427;-27.442;153.014;2023-05-10T03:07:54;5.15;;;1.67;;
64915;SDS011;51427;-27.442;153.014;2023-05-10T03:10:24;5.78;;;1.73;;
64915;SDS011;51427;-27.442;153.014;2023-05-10T03:18:54;5.88;;;1.75;;
64915;SDS011;51427;-27.442;153.014;2023-05-10T03:21:52;6.45;;;2.28;;
64915;SDS011;51427;-27.442;153.014;2023-05-10T03:24:23;4.00;;;2.08;;
64915;SDS011;51427;-27.442;153.014;2023-05-10T03:26:55;7.13;;;3.22;;
64915;SDS011;51427;-27.442;153.014;2023-05-10T03:29:25;5.78;;;3.10;;
64915;SDS011;51427;-27.442;153.014;2023-05-10T03:31:53;6.18;;;3.17;;
64915;SDS011;51427;-27.442;153.014;2023-05-10T03:34:24;6.20;;;3.28;;
64915;SDS011;51427;-27.442;153.014;2023-05-10T03:36:52;6.72;;;3.20;;
64915;SDS011;51427;-27.442;153.014;2023-05-10T03:39:20;8.15;;;3.42;;
64915;SDS011;51427;-27.442;153.014;2023-05-10T03:41:48;5.05;;;2.90;;
64915;SDS011;51427;-27.442;153.014;2023-05-10T03:44:15;6.20;;;2.92;;
64915;SDS011;51427;-27.442;153.014;2023-05-10T03:46:44;6.18;;;3.75;;
64915;SDS011;51427;-27.442;153.014;2023-05-10T03:49:11;5.53;;;3.83;;
64915;SDS011;51427;-27.442;153.014;2023-05-10T03:51:39;8.50;;;4.43;;
64915;SDS011;51427;-27.442;153.014;2023-05-10T03:54:06;7.70;;;4.00;;
64915;SDS011;51427;-27.442;153.014;2023-05-10T03:56:34;7.05;;;3.78;;
64915;SDS011;51427;-27.442;153.014;2023-05-10T03:59:02;5.82;;;3.20;;
64915;SDS011;51427;-27.442;153.014;2023-05-10T04:01:33;7.25;;;3.42;;
64915;SDS011;51427;-27.442;153.014;2023-05-10T04:04:01;7.45;;;3.30;;
64915;SDS011;51427;-27.442;153.014;2023-05-10T04:06:29;6.93;;;3.38;;
64915;SDS011;51427;-27.442;153.014;2023-05-10T04:08:57;6.28;;;2.75;;
64915;SDS011;51427;-27.442;153.014;2023-05-10T04:11:27;7.53;;;2.78;;
64915;SDS011;51427;-27.442;153.014;2023-05-10T04:13:54;5.25;;;2.50;;
64915;SDS011;51427;-27.442;153.014;2023-05-10T04:16:22;6.10;;;2.55;;
64915;SDS011;51427;-27.442;153.014;2023-05-10T04:18:50;9.43;;;2.90;;
64915;SDS011;51427;-27.442;153.014;2023-05-10T04:21:17;9.07;;;2.60;;
64915;SDS011;51427;-27.442;153.014;2023-05-10T04:23:45;6.68;;;2.45;;
64915;SDS011;51427;-27.442;153.014;2023-05-10T04:26:13;7.53;;;2.60;;
64915;SDS011;51427;-27.442;153.014;2023-05-10T04:28:40;8.52;;;2.40;;
64915;SDS011;51427;-27.442;153.014;2023-05-10T04:31:08;5.70;;;2.30;;
64915;SDS011;51427;-27.442;153.014;2023-05-10T04:33:36;5.05;;;2.00;;
64915;SDS011;51427;-27.442;153.014;2023-05-10T04:36:04;8.45;;;2.00;;
64915;SDS011;51427;-27.442;153.014;2023-05-10T04:38:32;8.90;;;1.75;;
64915;SDS011;51427;-27.442;153.014;2023-05-10T04:41:06;8.27;;;2.35;;
64915;SDS011;51427;-27.442;153.014;2023-05-10T04:43:35;9.10;;;2.50;;
64915;SDS011;51427;-27.442;153.014;2023-05-10T04:46:03;6.00;;;1.85;;
64915;SDS011;51427;-27.442;153.014;2023-05-10T04:48:32;4.13;;;1.80;;
64915;SDS011;51427;-27.442;153.014;2023-05-10T04:51:00;8.65;;;2.03;;
64915;SDS011;51427;-27.442;153.014;2023-05-10T04:53:29;3.78;;;1.30;;
64915;SDS011;51427;-27.442;153.014;2023-05-10T04:55:57;4.68;;;1.70;;
64915;SDS011;51427;-27.442;153.014;2023-05-10T04:58:24;4.45;;;1.50;;
64915;SDS011;51427;-27.442;153.014;2023-05-10T05:00:52;5.00;;;1.67;;
64915;SDS011;51427;-27.442;153.014;2023-05-10T05:03:20;6.30;;;1.60;;
64915;SDS011;51427;-27.442;153.014;2023-05-10T05:05:48;5.35;;;1.50;;
64915;SDS011;51427;-27.442;153.014;2023-05-10T05:08:15;5.68;;;1.95;;
64915;SDS011;51427;-27.442;153.014;2023-05-10T05:10:43;7.95;;;1.80;;
64915;SDS011;51427;-27.442;153.014;2023-05-10T05:13:12;7.35;;;1.77;;
64915;SDS011;51427;-27.442;153.014;2023-05-10T05:15:39;6.05;;;1.55;;
64915;SDS011;51427;-27.442;153.014;2023-05-10T05:18:07;6.65;;;1.88;;
64915;SDS011;51427;-27.442;153.014;2023-05-10T05:20:34;7.63;;;1.80;;
64915;SDS011;51427;-27.442;153.014;2023-05-10T05:23:02;7.97;;;2.10;;
64915;SDS011;51427;-27.442;153.014;2023-05-10T05:25:30;6.53;;;1.75;;
64915;SDS011;51427;-27.442;153.014;2023-05-10T05:27:57;5.95;;;1.67;;
64915;SDS011;51427;-27.442;153.014;2023-05-10T05:30:25;6.97;;;2.00;;
64915;SDS011;51427;-27.442;153.014;2023-05-10T05:32:53;7.22;;;2.00;;
64915;SDS011;51427;-27.442;153.014;2023-05-10T05:35:20;4.40;;;1.70;;
64915;SDS011;51427;-27.442;153.014;2023-05-10T05:37:48;3.83;;;1.55;;
64915;SDS011;51427;-27.442;153.014;2023-05-10T05:40:16;6.00;;;2.20;;
64915;SDS011;51427;-27.442;153.014;2023-05-10T05:42:43;5.90;;;1.75;;
64915;SDS011;51427;-27.442;153.014;2023-05-10T05:45:11;5.47;;;2.08;;
64915;SDS011;51427;-27.442;153.014;2023-05-10T05:47:39;4.32;;;1.38;;
64915;SDS011;51427;-27.442;153.014;2023-05-10T05:50:07;4.25;;;1.60;;
64915;SDS011;51427;-27.442;153.014;2023-05-10T05:52:35;5.50;;;1.40;;
64915;SDS011;51427;-27.442;153.014;2023-05-10T05:55:02;5.47;;;1.98;;
64915;SDS011;51427;-27.442;153.014;2023-05-10T05:57:30;3.60;;;1.23;;
64915;SDS011;51427;-27.442;153.014;2023-05-10T05:59:58;5.10;;;1.65;;
64915;SDS011;51427;-27.442;153.014;2023-05-10T06:02:26;5.65;;;1.73;;
64915;SDS011;51427;-27.442;153.014;2023-05-10T06:04:53;4.80;;;1.33;;
64915;SDS011;51427;-27.442;153.014;2023-05-10T06:07:21;2.63;;;1.25;;
64915;SDS011;51427;-27.442;153.014;2023-05-10T06:09:48;5.50;;;1.40;;
64915;SDS011;51427;-27.442;153.014;2023-05-10T06:12:16;9.30;;;1.75;;
64915;SDS011;51427;-27.442;153.014;2023-05-10T06:14:44;5.32;;;1.65;;
64915;SDS011;51427;-27.442;153.014;2023-05-10T06:17:11;6.60;;;1.55;;
64915;SDS011;51427;-27.442;153.014;2023-05-10T06:19:39;2.75;;;1.50;;
64915;SDS011;51427;-27.442;153.014;2023-05-10T06:22:06;5.20;;;1.65;;
64915;SDS011;51427;-27.442;153.014;2023-05-10T06:24:34;2.28;;;1.30;;
64915;SDS011;51427;-27.442;153.014;2023-05-10T06:27:02;5.97;;;1.95;;
64915;SDS011;51427;-27.442;153.014;2023-05-10T06:29:30;7.43;;;1.55;;
64915;SDS011;51427;-27.442;153.014;2023-05-10T06:31:58;6.55;;;1.58;;
64915;SDS011;51427;-27.442;153.014;2023-05-10T06:34:25;3.75;;;1.50;;
64915;SDS011;51427;-27.442;153.014;2023-05-10T06:36:53;9.10;;;2.40;;
64915;SDS011;51427;-27.442;153.014;2023-05-10T06:39:20;7.95;;;1.90;;
64915;SDS011;51427;-27.442;153.014;2023-05-10T06:41:48;6.95;;;1.95;;
64915;SDS011;51427;-27.442;153.014;2023-05-10T06:44:16;6.60;;;2.28;;
64915;SDS011;51427;-27.442;153.014;2023-05-10T06:46:43;6.90;;;1.98;;
64915;SDS011;51427;-27.442;153.014;2023-05-10T06:49:11;10.02;;;2.40;;
64915;SDS011;51427;-27.442;153.014;2023-05-10T06:51:38;5.18;;;2.13;;
64915;SDS011;51427;-27.442;153.014;2023-05-10T06:54:06;7.10;;;1.80;;
64915;SDS011;51427;-27.442;153.014;2023-05-10T06:56:34;4.93;;;1.63;;
64915;SDS011;51427;-27.442;153.014;2023-05-10T06:59:01;5.75;;;2.13;;
64915;SDS011;51427;-27.442;153.014;2023-05-10T07:01:29;7.13;;;2.10;;
64915;SDS011;51427;-27.442;153.014;2023-05-10T07:03:56;7.30;;;1.85;;
64915;SDS011;51427;-27.442;153.014;2023-05-10T07:06:24;8.63;;;2.22;;
64915;SDS011;51427;-27.442;153.014;2023-05-10T07:08:51;10.60;;;2.10;;
64915;SDS011;51427;-27.442;153.014;2023-05-10T07:11:19;7.63;;;2.28;;
64915;SDS011;51427;-27.442;153.014;2023-05-10T07:13:47;5.30;;;1.88;;
64915;SDS011;51427;-27.442;153.014;2023-05-10T07:16:14;9.57;;;2.50;;
64915;SDS011;51427;-27.442;153.014;2023-05-10T07:18:42;7.47;;;2.13;;
64915;SDS011;51427;-27.442;153.014;2023-05-10T07:21:10;7.63;;;2.40;;
64915;SDS011;51427;-27.442;153.014;2023-05-10T07:23:37;5.88;;;1.80;;
64915;SDS011;51427;-27.442;153.014;2023-05-10T07:26:05;9.27;;;2.90;;
64915;SDS011;51427;-27.442;153.014;2023-05-10T07:28:32;10.32;;;2.30;;
64915;SDS011;51427;-27.442;153.014;2023-05-10T07:31:03;4.53;;;1.95;;
64915;SDS011;51427;-27.442;153.014;2023-05-10T07:33:30;5.97;;;2.20;;
64915;SDS011;51427;-27.442;153.014;2023-05-10T07:35:58;10.23;;;2.55;;
64915;SDS011;51427;-27.442;153.014;2023-05-10T07:38:26;8.23;;;2.45;;
64915;SDS011;51427;-27.442;153.014;2023-05-10T07:40:53;7.95;;;2.28;;
64915;SDS011;51427;-27.442;153.014;2023-05-10T07:43:21;8.57;;;2.65;;
64915;SDS011;51427;-27.442;153.014;2023-05-10T07:45:49;9.73;;;2.45;;
64915;SDS011;51427;-27.442;153.014;2023-05-10T07:48:17;9.00;;;2.50;;
64915;SDS011;51427;-27.442;153.014;2023-05-10T07:50:44;10.10;;;2.00;;
64915;SDS011;51427;-27.442;153.014;2023-05-10T07:53:12;9.60;;;2.30;;
64915;SDS011;51427;-27.442;153.014;2023-05-10T07:55:40;15.10;;;2.92;;
64915;SDS011;51427;-27.442;153.014;2023-05-10T07:58:07;8.82;;;2.42;;
64915;SDS011;51427;-27.442;153.014;2023-05-10T08:00:35;8.27;;;2.70;;
64915;SDS011;51427;-27.442;153.014;2023-05-10T08:03:05;8.52;;;2.50;;
64915;SDS011;51427;-27.442;153.014;2023-05-10T08:05:32;6.53;;;2.50;;
64915;SDS011;51427;-27.442;153.014;2023-05-10T08:08:00;13.20;;;3.00;;
64915;SDS011;51427;-27.442;153.014;2023-05-10T08:10:28;8.18;;;2.25;;
64915;SDS011;51427;-27.442;153.014;2023-05-10T08:12:56;10.00;;;2.33;;
64915;SDS011;51427;-27.442;153.014;2023-05-10T08:15:24;9.27;;;2.40;;
64915;SDS011;51427;-27.442;153.014;2023-05-10T08:17:52;9.45;;;2.17;;
64915;SDS011;51427;-27.442;153.014;2023-05-10T08:20:20;6.75;;;2.20;;
64915;SDS011;51427;-27.442;153.014;2023-05-10T08:22:48;7.13;;;2.22;;
64915;SDS011;51427;-27.442;153.014;2023-05-10T08:25:15;7.55;;;2.47;;
64915;SDS011;51427;-27.442;153.014;2023-05-10T08:27:43;10.45;;;2.17;;
64915;SDS011;51427;-27.442;153.014;2023-05-10T08:30:11;12.25;;;2.33;;
64915;SDS011;51427;-27.442;153.014;2023-05-10T08:32:38;8.32;;;2.35;;
64915;SDS011;51427;-27.442;153.014;2023-05-10T08:35:06;11.93;;;3.00;;
64915;SDS011;51427;-27.442;153.014;2023-05-10T08:37:34;6.53;;;2.17;;
64915;SDS011;51427;-27.442;153.014;2023-05-10T08:40:01;6.55;;;2.67;;
64915;SDS011;51427;-27.442;153.014;2023-05-10T08:42:30;7.75;;;2.47;;
64915;SDS011;51427;-27.442;153.014;2023-05-10T08:45:01;5.70;;;2.00;;
64915;SDS011;51427;-27.442;153.014;2023-05-10T08:47:30;5.82;;;2.50;;
64915;SDS011;51427;-27.442;153.014;2023-05-10T08:49:58;7.72;;;2.58;;
64915;SDS011;51427;-27.442;153.014;2023-05-10T08:52:26;7.53;;;2.53;;
64915;SDS011;51427;-27.442;153.014;2023-05-10T08:54:56;4.63;;;1.63;;
64915;SDS011;51427;-27.442;153.014;2023-05-10T08:57:24;8.32;;;2.45;;
64915;SDS011;51427;-27.442;153.014;2023-05-10T08:59:52;7.70;;;2.25;;
64915;SDS011;51427;-27.442;153.014;2023-05-10T09:02:20;6.97;;;2.53;;
64915;SDS011;51427;-27.442;153.014;2023-05-10T09:04:49;8.60;;;2.33;;
64915;SDS011;51427;-27.442;153.014;2023-05-10T09:07:17;5.20;;;1.98;;
64915;SDS011;51427;-27.442;153.014;2023-05-10T09:09:45;7.57;;;2.83;;
64915;SDS011;51427;-27.442;153.014;2023-05-10T09:12:13;4.78;;;2.28;;
64915;SDS011;51427;-27.442;153.014;2023-05-10T09:14:42;6.47;;;2.35;;
64915;SDS011;51427;-27.442;153.014;2023-05-10T09:17:10;5.55;;;2.17;;
64915;SDS011;51427;-27.442;153.014;2023-05-10T09:19:39;4.70;;;2.15;;
64915;SDS011;51427;-27.442;153.014;2023-05-10T09:22:06;7.78;;;2.47;;
64915;SDS011;51427;-27.442;153.014;2023-05-10T09:24:34;5.22;;;2.03;;
64915;SDS011;51427;-27.442;153.014;2023-05-10T09:27:08;5.93;;;2.53;;
64915;SDS011;51427;-27.442;153.014;2023-05-10T09:29:39;6.55;;;2.40;;
64915;SDS011;51427;-27.442;153.014;2023-05-10T09:32:10;5.93;;;2.13;;
64915;SDS011;51427;-27.442;153.014;2023-05-10T09:34:38;6.57;;;2.80;;
64915;SDS011;51427;-27.442;153.014;2023-05-10T09:37:06;6.43;;;2.00;;
64915;SDS011;51427;-27.442;153.014;2023-05-10T09:39:35;9.55;;;2.92;;
64915;SDS011;51427;-27.442;153.014;2023-05-10T09:42:04;5.20;;;2.60;;
64915;SDS011;51427;-27.442;153.014;2023-05-10T09:44:33;5.50;;;2.08;;
64915;SDS011;51427;-27.442;153.014;2023-05-10T09:47:02;5.07;;;2.35;;
64915;SDS011;51427;-27.442;153.014;2023-05-10T09:49:30;7.35;;;2.50;;
64915;SDS011;51427;-27.442;153.014;2023-05-10T09:52:02;6.72;;;2.53;;
64915;SDS011;51427;-27.442;153.014;2023-05-10T09:54:31;5.38;;;2.10;;
64915;SDS011;51427;-27.442;153.014;2023-05-10T09:57:00;6.20;;;2.28;;
64915;SDS011;51427;-27.442;153.014;2023-05-10T09:59:28;6.10;;;2.65;;
64915;SDS011;51427;-27.442;153.014;2023-05-10T10:01:59;6.25;;;2.45;;
64915;SDS011;51427;-27.442;153.014;2023-05-10T10:04:27;5.53;;;2.75;;
64915;SDS011;51427;-27.442;153.014;2023-05-10T10:06:58;5.95;;;2.60;;
64915;SDS011;51427;-27.442;153.014;2023-05-10T10:09:28;5.13;;;2.28;;
64915;SDS011;51427;-27.442;153.014;2023-05-10T10:11:56;5.97;;;2.45;;
64915;SDS011;51427;-27.442;153.014;2023-05-10T10:14:24;8.38;;;2.08;;
64915;SDS011;51427;-27.442;153.014;2023-05-10T10:16:52;13.95;;;3.22;;
64915;SDS011;51427;-27.442;153.014;2023-05-10T10:19:21;7.20;;;2.65;;
64915;SDS011;51427;-27.442;153.014;2023-05-10T10:21:49;6.72;;;2.17;;
64915;SDS011;51427;-27.442;153.014;2023-05-10T10:24:17;6.75;;;2.38;;
64915;SDS011;51427;-27.442;153.014;2023-05-10T10:26:45;5.57;;;2.28;;
64915;SDS011;51427;-27.442;153.014;2023-05-10T10:35:33;7.82;;;2.97;;
64915;SDS011;51427;-27.442;153.014;2023-05-10T10:38:02;6.20;;;2.50;;
64915;SDS011;51427;-27.442;153.014;2023-05-10T10:40:31;7.57;;;2.42;;
64915;SDS011;51427;-27.442;153.014;2023-05-10T10:49:08;10.30;;;2.80;;
64915;SDS011;51427;-27.442;153.014;2023-05-10T10:51:39;6.95;;;2.90;;
64915;SDS011;51427;-27.442;153.014;2023-05-10T10:54:29;7.80;;;2.65;;
64915;SDS011;51427;-27.442;153.014;2023-05-10T10:57:14;4.75;;;2.60;;
64915;SDS011;51427;-27.442;153.014;2023-05-10T10:59:44;8.63;;;2.50;;
64915;SDS011;51427;-27.442;153.014;2023-05-10T11:16:09;6.07;;;2.42;;
64915;SDS011;51427;-27.442;153.014;2023-05-10T11:18:39;4.80;;;2.45;;
64915;SDS011;51427;-27.442;153.014;2023-05-10T11:21:08;5.15;;;2.30;;
64915;SDS011;51427;-27.442;153.014;2023-05-10T11:26:07;7.65;;;2.17;;
64915;SDS011;51427;-27.442;153.014;2023-05-10T11:28:45;4.15;;;1.77;;
64915;SDS011;51427;-27.442;153.014;2023-05-10T11:31:13;8.18;;;2.40;;
64915;SDS011;51427;-27.442;153.014;2023-05-10T11:33:51;5.88;;;2.40;;
64915;SDS011;51427;-27.442;153.014;2023-05-10T11:36:21;9.00;;;2.30;;
64915;SDS011;51427;-27.442;153.014;2023-05-10T11:38:56;8.00;;;2.63;;
64915;SDS011;51427;-27.442;153.014;2023-05-10T11:41:24;6.03;;;2.30;;
64915;SDS011;51427;-27.442;153.014;2023-05-10T11:43:54;9.45;;;2.15;;
64915;SDS011;51427;-27.442;153.014;2023-05-10T11:46:23;6.57;;;1.95;;
64915;SDS011;51427;-27.442;153.014;2023-05-10T11:48:53;7.63;;;2.25;;
64915;SDS011;51427;-27.442;153.014;2023-05-10T11:51:24;3.38;;;1.90;;
64915;SDS011;51427;-27.442;153.014;2023-05-10T11:53:55;6.03;;;2.13;;
64915;SDS011;51427;-27.442;153.014;2023-05-10T11:56:23;5.22;;;2.50;;
64915;SDS011;51427;-27.442;153.014;2023-05-10T11:58:53;6.05;;;2.60;;
64915;SDS011;51427;-27.442;153.014;2023-05-10T12:01:26;5.75;;;1.88;;
64915;SDS011;51427;-27.442;153.014;2023-05-10T12:03:55;6.95;;;2.20;;
64915;SDS011;51427;-27.442;153.014;2023-05-10T12:06:29;5.72;;;3.38;;
64915;SDS011;51427;-27.442;153.014;2023-05-10T12:08:58;7.78;;;3.30;;
64915;SDS011;51427;-27.442;153.014;2023-05-10T12:11:26;5.32;;;2.55;;
64915;SDS011;51427;-27.442;153.014;2023-05-10T12:13:55;6.93;;;3.28;;
64915;SDS011;51427;-27.442;153.014;2023-05-10T12:16:24;8.38;;;3.15;;
64915;SDS011;51427;-27.442;153.014;2023-05-10T12:18:57;7.15;;;2.95;;
64915;SDS011;51427;-27.442;153.014;2023-05-10T12:21:26;5.45;;;3.03;;
64915;SDS011;51427;-27.442;153.014;2023-05-10T12:23:59;11.80;;;3.67;;
64915;SDS011;51427;-27.442;153.014;2023-05-10T12:26:34;10.48;;;3.40;;
64915;SDS011;51427;-27.442;153.014;2023-05-10T12:29:15;9.95;;;3.65;;
64915;SDS011;51427;-27.442;153.014;2023-05-10T12:31:54;7.13;;;3.10;;
64915;SDS011;51427;-27.442;153.014;2023-05-10T12:34:23;5.28;;;3.05;;
64915;SDS011;51427;-27.442;153.014;2023-05-10T12:36:54;6.82;;;3.00;;
64915;SDS011;51427;-27.442;153.014;2023-05-10T12:39:23;9.23;;;2.85;;
64915;SDS011;51427;-27.442;153.014;2023-05-10T12:41:51;7.97;;;2.92;;
64915;SDS011;51427;-27.442;153.014;2023-05-10T12:44:19;6.60;;;2.53;;
64915;SDS011;51427;-27.442;153.014;2023-05-10T12:46:47;7.20;;;3.13;;
64915;SDS011;51427;-27.442;153.014;2023-05-10T12:49:14;6.65;;;2.67;;
64915;SDS011;51427;-27.442;153.014;2023-05-10T12:51:44;8.38;;;3.42;;
64915;SDS011;51427;-27.442;153.014;2023-05-10T12:54:12;8.02;;;2.40;;
64915;SDS011;51427;-27.442;153.014;2023-05-10T12:56:39;5.90;;;2.70;;
64915;SDS011;51427;-27.442;153.014;2023-05-10T12:59:08;6.13;;;2.80;;
64915;SDS011;51427;-27.442;153.014;2023-05-10T13:01:36;5.78;;;2.65;;
64915;SDS011;51427;-27.442;153.014;2023-05-10T13:04:03;4.55;;;2.35;;
64915;SDS011;51427;-27.442;153.014;2023-05-10T13:06:31;4.03;;;2.50;;
64915;SDS011;51427;-27.442;153.014;2023-05-10T13:08:59;5.60;;;3.13;;
64915;SDS011;51427;-27.442;153.014;2023-05-10T13:11:26;4.47;;;2.45;;
64915;SDS011;51427;-27.442;153.014;2023-05-10T13:13:54;5.05;;;2.25;;
64915;SDS011;51427;-27.442;153.014;2023-05-10T13:16:22;9.65;;;2.55;;
64915;SDS011;51427;-27.442;153.014;2023-05-10T13:18:49;6.25;;;1.88;;
64915;SDS011;51427;-27.442;153.014;2023-05-10T13:21:17;6.72;;;2.00;;
64915;SDS011;51427;-27.442;153.014;2023-05-10T13:23:45;8.57;;;2.55;;
64915;SDS011;51427;-27.442;153.014;2023-05-10T13:26:12;4.70;;;2.30;;
64915;SDS011;51427;-27.442;153.014;2023-05-10T13:28:40;8.32;;;2.28;;
64915;SDS011;51427;-27.442;153.014;2023-05-10T13:31:08;6.50;;;1.90;;
64915;SDS011;51427;-27.442;153.014;2023-05-10T13:33:36;5.88;;;2.28;;
64915;SDS011;51427;-27.442;153.014;2023-05-10T13:36:03;7.85;;;2.60;;
64915;SDS011;51427;-27.442;153.014;2023-05-10T13:38:34;8.90;;;2.08;;
64915;SDS011;51427;-27.442;153.014;2023-05-10T13:41:02;9.20;;;2.40;;
64915;SDS011;51427;-27.442;153.014;2023-05-10T13:43:29;7.05;;;2.20;;
64915;SDS011;51427;-27.442;153.014;2023-05-10T13:45:57;3.22;;;1.60;;
64915;SDS011;51427;-27.442;153.014;2023-05-10T13:48:25;5.55;;;1.75;;
64915;SDS011;51427;-27.442;153.014;2023-05-10T13:50:53;5.28;;;1.80;;
64915;SDS011;51427;-27.442;153.014;2023-05-10T13:53:20;7.28;;;2.70;;
64915;SDS011;51427;-27.442;153.014;2023-05-10T13:55:48;4.63;;;1.98;;
64915;SDS011;51427;-27.442;153.014;2023-05-10T13:58:16;5.95;;;2.20;;
64915;SDS011;51427;-27.442;153.014;2023-05-10T14:00:43;7.40;;;2.35;;
64915;SDS011;51427;-27.442;153.014;2023-05-10T14:03:11;6.95;;;2.10;;
64915;SDS011;51427;-27.442;153.014;2023-05-10T14:05:39;7.95;;;2.13;;
64915;SDS011;51427;-27.442;153.014;2023-05-10T14:08:07;5.55;;;1.92;;
64915;SDS011;51427;-27.442;153.014;2023-05-10T14:10:35;5.15;;;2.00;;
64915;SDS011;51427;-27.442;153.014;2023-05-10T14:13:03;5.28;;;1.88;;
64915;SDS011;51427;-27.442;153.014;2023-05-10T14:15:32;5.70;;;1.67;;
64915;SDS011;51427;-27.442;153.014;2023-05-10T14:17:59;5.53;;;2.33;;
64915;SDS011;51427;-27.442;153.014;2023-05-10T14:20:27;6.18;;;1.63;;
64915;SDS011;51427;-27.442;153.014;2023-05-10T14:22:55;9.95;;;2.35;;
64915;SDS011;51427;-27.442;153.014;2023-05-10T14:25:25;5.07;;;1.50;;
64915;SDS011;51427;-27.442;153.014;2023-05-10T14:27:53;6.68;;;1.88;;
64915;SDS011;51427;-27.442;153.014;2023-05-10T14:30:21;4.78;;;2.17;;
64915;SDS011;51427;-27.442;153.014;2023-05-10T14:32:49;3.72;;;1.50;;
64915;SDS011;51427;-27.442;153.014;2023-05-10T14:35:16;6.10;;;1.58;;
64915;SDS011;51427;-27.442;153.014;2023-05-10T14:37:45;5.85;;;2.03;;
64915;SDS011;51427;-27.442;153.014;2023-05-10T14:40:13;5.13;;;1.85;;
64915;SDS011;51427;-27.442;153.014;2023-05-10T14:42:42;3.50;;;1.63;;
64915;SDS011;51427;-27.442;153.014;2023-05-10T14:45:10;5.97;;;1.70;;
64915;SDS011;51427;-27.442;153.014;2023-05-10T14:47:38;9.57;;;2.13;;
64915;SDS011;51427;-27.442;153.014;2023-05-10T14:50:06;5.38;;;1.73;;
64915;SDS011;51427;-27.442;153.014;2023-05-10T14:52:34;5.18;;;1.80;;
64915;SDS011;51427;-27.442;153.014;2023-05-10T14:55:02;5.30;;;1.92;;
64915;SDS011;51427;-27.442;153.014;2023-05-10T14:57:30;5.85;;;1.85;;
64915;SDS011;51427;-27.442;153.014;2023-05-10T14:59:58;5.75;;;1.98;;
64915;SDS011;51427;-27.442;153.014;2023-05-10T15:02:25;5.60;;;1.33;;